• Join FlightAware (Why Join?)
  • Login
  • US Flag 
07:19AM EDT


 

Airport Tracker/Info


-or-


 

Live Flight TrackerFlight Track Log ✈ WIG7406 ✈ 13-Jun-2014 ✈ KBGR - KPWM

Flight Track Log - Related Links

Times and Time Zones

All times are in EDT time to prevent confusion due to time zone crossing. See the WIG7406 flight status page for this flight to view local times or setup timezone preferences in your user account.

Time Position Orientation Groundspeed Altitude Reporting Facility
EDT Latitude Longitude Course Direction KTS MPH feet Rate Location/Type
07:11PM 44.7669 -68.7953 222° Southwest 115 132 2,700  Level Boston Center
07:12PM 44.7500 -68.8308 236° Southwest 113 130 3,700 600 Climbing Boston Center
07:13PM 44.7281 -68.8617 225° Southwest 110 127 4,000 120 Climbing Boston Center
07:14PM 44.6981 -68.8914 215° Southwest 125 144 4,000  Level Boston Center
07:15PM 44.6322 -69.0471 222° Southwest  Level FlightAware Approximate
07:15PM 44.6717 -68.9281 225° Southwest 130 150 4,000  Level Boston Center
07:16PM 44.6030 -69.0835 222° Southwest  Level FlightAware Approximate
07:16PM 44.6461 -68.9622 224° Southwest 130 150 4,000  Level Boston Center
07:17PM 44.6217 -68.9967 225° Southwest 129 148 4,000  Level Boston Center
07:18PM 44.5958 -69.0331 225° Southwest 129 148 4,000  Level Boston Center
07:19PM 44.5703 -69.0683 225° Southwest 129 148 4,000  Level Boston Center
07:20PM 44.5450 -69.1031 224° Southwest 129 148 4,000  Level Boston Center
07:21PM 44.5156 -69.1444 225° Southwest 129 148 4,000  Level Boston Center
07:22PM 44.4906 -69.1789 225° Southwest 128 147 4,000  Level Boston Center
07:23PM 44.4656 -69.2114 223° Southwest 127 146 4,100  Climbing Boston Center
07:24PM 44.4414 -69.2458 226° Southwest 126 145 4,100  Level Boston Center
07:25PM 44.4164 -69.2847 228° Southwest 127 146 4,100 -60 Level Boston Center
07:26PM 44.3922 -69.3242 229° Southwest 129 148 4,000 -60 Descending Boston Center
07:27PM 44.3703 -69.3631 232° Southwest 129 148 4,000  Level Boston Center
07:28PM 44.3469 -69.4011 229° Southwest 129 148 4,000  Level Boston Center
07:29PM 44.3244 -69.4414 232° Southwest 129 148 4,000  Level Boston Center
07:30PM 44.2994 -69.4828 230° Southwest 129 148 4,000  Level Boston Center
07:31PM 44.2761 -69.5194 228° Southwest 130 150 4,000  Level Boston Center
07:32PM 44.2519 -69.5617 231° Southwest 132 152 4,000  Level Boston Center
07:33PM 44.2272 -69.6036 231° Southwest 134 154 4,000  Level Boston Center
07:34PM 44.1967 -69.6536 230° Southwest 138 159 4,000  Level Boston Center
07:35PM 44.1708 -69.6958 230° Southwest 138 159 4,100  Climbing Boston Center
07:36PM 44.1458 -69.7372 230° Southwest 139 160 4,100  Level Boston Center
07:37PM 44.1194 -69.7822 231° Southwest 139 160 4,100  Level Boston Center
07:38PM 44.0953 -69.8236 231° Southwest 139 160 4,100  Level Boston Center
07:39PM 44.0703 -69.8639 229° Southwest 139 160 4,100  Level Boston Center
07:40PM 44.0444 -69.9064 230° Southwest 137 158 4,100  Level Boston Center
07:41PM 44.0200 -69.9472 230° Southwest 137 158 4,100  Level Boston Center
07:42PM 43.9953 -69.9881 230° Southwest 137 158 4,100  Level Boston Center
07:43PM 43.9706 -70.0292 230° Southwest 138 159 4,100  Level Boston Center
07:44PM 43.9433 -70.0739 230° Southwest 138 159 4,100  Level Boston Center
07:45PM 43.9186 -70.1144 230° Southwest 138 159 4,100  Level Boston Center
07:46PM 43.8936 -70.1558 230° Southwest 138 159 4,100  Level Boston Center
07:47PM 43.8764 -70.2111 247° West 145 167 4,100  Level Boston Center
07:48PM 43.8611 -70.2642 248° West 147 169 4,100  Level Boston Center
07:50PM 43.8447 -70.3225 249° West 150 173 4,100  Level Boston Center
07:51PM 43.8292 -70.3761 248° West 150 173 4,100  Level Boston Center
07:52PM 43.8139 -70.4300 249° West 151 174 4,100  Level Boston Center
07:53PM 43.7967 -70.4897 248° West 152 175 4,100 -180 Level Boston Center
07:54PM 43.7806 -70.5444 248° West 152 175 3,800 -420 Descending Boston Center
07:55PM 43.7561 -70.5894 233° Southwest 156 180 3,300 -600 Descending Boston Center
07:56PM 43.7139 -70.5786 169° South 145 167 2,700 -600 Descending Boston Center
07:57PM 43.6767 -70.5606 161° South 145 167 2,200 -300 Descending Boston Center
07:58PM 43.6578 -70.5119 118° Southeast 149 171 2,100 -120 Descending Boston Center
07:59PM 43.6536 -70.4539 96° East 145 167 2,000 -480 Descending Boston Center
08:00PM 43.6503 -70.3992 95° East 144 166 1,200 -840 Descending Boston Center
08:01PM 43.6469 -70.3450 95° East 144 166 400 -480 Descending Boston Center
08:02PM 43.6431 -70.2919 96° East 144 166 300 -120 Descending Boston Center